Bourke, Australia
Current Conditions -  °F | °C
As of 10:00 PM on Friday 24 Oct 2014 (Local Time) from YSDU Reporting Station
Clear Clear  
Wind Chill: 82°   Ceiling: Unl
Heat Index: 82°   Visibility: 6mi
Dew Point: 41°   Wind: 9mph
Humidity: 23%   Direction: 260°W
Pressure: 29.97"   Gusts: NA
Location:  30.09°S, 145.94°E
Report Text: YSDU 241100Z AUTO 26008KT 9999 // NCD 28/05 Q1015
Loading
Personal Weather Stations






























Interactive Weather Map
Tropical Storm Tracking
New forecast layout! Learn more

10-Day Weather Forecast

Advertisements
Track Severe Weather on mobile